Time;durP1;ratioP1;P1;durP2;ratioP2;P2;SDS_P1;SDS_P2;PMS_P1;PMS_P2;Temp;Humidity;BMP_temperature;BMP_pressure;BME280_temperature;BME280_humidity;BME280_pressure;Samples;Min_cycle;Max_cycle;Signal;HPM_P1;HPM_P2
2021/12/01 00:02:45;;;;;;;4.70;2.03;;;16.80;53.90;;;;;;10424046;28;20218;-68
2021/12/01 00:08:07;;;;;;;3.93;1.63;;;16.80;54.00;;;;;;10451193;28;20189;-68
2021/12/01 00:13:32;;;;;;;4.60;1.63;;;16.80;53.90;;;;;;10446309;28;20224;-67
2021/12/01 00:18:55;;;;;;;4.57;1.90;;;16.80;53.90;;;;;;10442202;28;20604;-68
2021/12/01 00:24:17;;;;;;;3.60;1.70;;;16.80;54.00;;;;;;10450382;28;20216;-68
2021/12/01 00:29:40;;;;;;;7.40;2.07;;;16.80;54.00;;;;;;10446546;28;20204;-68
2021/12/01 00:35:05;;;;;;;6.33;1.50;;;16.90;53.90;;;;;;10409855;28;20217;-68
2021/12/01 00:40:27;;;;;;;3.80;1.73;;;16.90;53.80;;;;;;10410422;28;20194;-68
2021/12/01 00:45:55;;;;;;;4.00;1.47;;;16.90;53.90;;;;;;10419973;28;20209;-68
2021/12/01 00:51:17;;;;;;;3.87;1.70;;;16.90;54.00;;;;;;10452038;28;20623;-68
2021/12/01 00:56:39;;;;;;;5.23;1.50;;;16.90;53.90;;;;;;10457974;28;20220;-68
2021/12/01 01:02:03;;;;;;;4.40;1.73;;;17.00;53.80;;;;;;10458032;28;20223;-68
2021/12/01 01:07:25;;;;;;;3.40;1.23;;;17.00;53.60;;;;;;10449255;28;20193;-68
2021/12/01 01:18:29;;;;;;;3.43;1.60;;;16.90;53.90;;;;;;10416228;28;20233;-67
2021/12/01 01:23:52;;;;;;;4.40;1.10;;;17.00;53.90;;;;;;10416188;28;20221;-68
2021/12/01 01:29:14;;;;;;;3.17;1.07;;;17.00;53.90;;;;;;10416578;28;20198;-67
2021/12/01 01:34:37;;;;;;;2.70;0.93;;;17.00;53.90;;;;;;10427487;28;20219;-70
2021/12/01 01:40:00;;;;;;;2.57;1.00;;;17.00;54.70;;;;;;10428550;28;20197;-68
2021/12/01 01:45:22;;;;;;;3.63;1.20;;;17.00;54.20;;;;;;10424259;28;20236;-67
2021/12/01 01:50:45;;;;;;;2.03;0.93;;;17.00;54.70;;;;;;10457305;28;20201;-67
2021/12/01 01:56:09;;;;;;;2.80;1.10;;;17.00;54.10;;;;;;10456204;28;20224;-67
2021/12/01 02:07:12;;;;;;;2.63;0.73;;;17.00;54.30;;;;;;10447246;28;20747;-67
2021/12/01 02:12:34;;;;;;;2.00;1.00;;;17.00;54.40;;;;;;10454528;28;20229;-67
2021/12/01 02:17:56;;;;;;;1.57;0.80;;;17.10;54.30;;;;;;10470389;22;20225;-63
2021/12/01 02:23:19;;;;;;;0.67;0.60;;;17.00;54.20;;;;;;10451559;28;20586;-64
2021/12/01 02:28:45;;;;;;;1.67;0.83;;;17.00;54.40;;;;;;10471035;28;20702;-63
2021/12/01 02:34:10;;;;;;;1.27;0.60;;;17.00;54.40;;;;;;10452561;28;20212;-63
2021/12/01 02:39:35;;;;;;;1.07;0.67;;;17.00;54.40;;;;;;10451773;28;20201;-64
2021/12/01 02:44:58;;;;;;;1.83;0.70;;;17.00;54.50;;;;;;10451971;28;20213;-63
2021/12/01 02:50:20;;;;;;;1.73;0.50;;;17.00;54.60;;;;;;10450688;28;20212;-64
2021/12/01 02:55:54;;;;;;;1.10;0.60;;;17.00;54.60;;;;;;10452783;28;20213;-64
2021/12/01 03:01:19;;;;;;;1.80;0.60;;;17.00;54.50;;;;;;10449922;28;20189;-63
2021/12/01 03:06:45;;;;;;;0.67;0.50;;;17.00;54.60;;;;;;10447180;28;20221;-64
2021/12/01 03:12:09;;;;;;;0.30;0.30;;;17.00;54.70;;;;;;10450557;28;20204;-63
2021/12/01 03:17:32;;;;;;;0.53;0.30;;;17.00;54.80;;;;;;10449098;28;20223;-63
2021/12/01 03:22:55;;;;;;;0.70;0.33;;;17.00;54.80;;;;;;10450539;28;20207;-63
2021/12/01 03:28:19;;;;;;;0.43;0.30;;;17.00;54.80;;;;;;10449337;28;20278;-63
2021/12/01 03:33:41;;;;;;;0.60;0.30;;;17.00;54.90;;;;;;10448181;28;20815;-63
2021/12/01 03:39:04;;;;;;;0.97;0.23;;;17.00;55.10;;;;;;10450863;28;20255;-63
2021/12/01 03:44:27;;;;;;;0.60;0.40;;;17.00;55.20;;;;;;10450323;28;20189;-64
2021/12/01 03:49:49;;;;;;;0.20;0.20;;;17.00;55.20;;;;;;10450666;28;20200;-64
2021/12/01 03:55:12;;;;;;;0.50;0.20;;;17.00;55.20;;;;;;10449091;28;20225;-63
2021/12/01 04:00:36;;;;;;;0.13;0.13;;;17.00;55.30;;;;;;10449770;28;20670;-64
2021/12/01 04:05:58;;;;;;;1.03;0.20;;;17.00;55.50;;;;;;10441108;28;20590;-64
2021/12/01 04:11:21;;;;;;;0.37;0.30;;;17.00;55.50;;;;;;10449657;28;20193;-63
2021/12/01 04:16:44;;;;;;;0.20;0.20;;;17.00;55.40;;;;;;10448395;28;20221;-64
2021/12/01 04:22:07;;;;;;;0.23;0.23;;;17.00;55.50;;;;;;10448490;28;20216;-63
2021/12/01 04:27:29;;;;;;;0.87;0.20;;;17.00;55.70;;;;;;10452685;28;20217;-63
2021/12/01 04:32:53;;;;;;;0.10;0.10;;;17.00;55.90;;;;;;10457767;28;20570;-63
2021/12/01 04:38:16;;;;;;;0.40;0.20;;;17.00;55.90;;;;;;10457234;28;20220;-63
2021/12/01 04:43:38;;;;;;;0.10;0.10;;;17.00;55.90;;;;;;10457748;28;20189;-63
2021/12/01 04:49:01;;;;;;;0.70;0.40;;;17.10;55.80;;;;;;10457107;28;20216;-62
2021/12/01 04:54:24;;;;;;;0.83;0.30;;;17.10;55.80;;;;;;10448238;28;20205;-63
2021/12/01 04:59:47;;;;;;;1.37;0.20;;;17.20;55.70;;;;;;10446182;28;20205;-64
2021/12/01 05:05:11;;;;;;;0.27;0.27;;;17.20;55.90;;;;;;10449355;28;20244;-64
2021/12/01 05:10:33;;;;;;;0.40;0.20;;;17.20;56.00;;;;;;10423747;28;20198;-64
2021/12/01 05:15:55;;;;;;;0.80;0.40;;;17.20;56.30;;;;;;10408150;28;20323;-64
2021/12/01 05:21:19;;;;;;;0.20;0.20;;;17.20;56.70;;;;;;10409160;28;20811;-63
2021/12/01 05:26:41;;;;;;;0.40;0.30;;;17.20;57.00;;;;;;10409275;28;20695;-64
2021/12/01 05:32:04;;;;;;;0.60;0.30;;;17.20;57.10;;;;;;10407858;28;20194;-64
2021/12/01 05:37:28;;;;;;;1.57;0.33;;;17.20;57.20;;;;;;10417312;28;20221;-64
2021/12/01 05:42:50;;;;;;;0.23;0.23;;;17.30;57.30;;;;;;10444693;28;20204;-64
2021/12/01 05:48:13;;;;;;;0.20;0.20;;;17.20;57.50;;;;;;10449593;28;20213;-63
2021/12/01 05:53:36;;;;;;;0.20;0.20;;;17.20;57.70;;;;;;10432237;28;20587;-63
2021/12/01 05:58:59;;;;;;;0.20;0.20;;;17.20;57.90;;;;;;10409092;28;20216;-64
2021/12/01 06:04:23;;;;;;;0.30;0.20;;;17.10;58.00;;;;;;10446892;28;20201;-63
2021/12/01 06:09:47;;;;;;;0.90;0.40;;;17.10;58.20;;;;;;10430370;28;20197;-65
2021/12/01 06:15:11;;;;;;;0.20;0.10;;;17.00;58.30;;;;;;10433476;28;20685;-64
2021/12/01 06:20:33;;;;;;;0.20;0.20;;;17.00;58.50;;;;;;10449853;28;20205;-64
2021/12/01 06:25:56;;;;;;;0.73;0.20;;;17.00;58.60;;;;;;10452344;28;20224;-65
2021/12/01 06:31:18;;;;;;;0.40;0.20;;;17.00;58.60;;;;;;10451917;28;20193;-65
2021/12/01 06:36:41;;;;;;;0.37;0.20;;;17.00;58.60;;;;;;10452492;28;20220;-63
2021/12/01 06:42:05;;;;;;;0.20;0.20;;;17.00;58.60;;;;;;10451088;28;20197;-63
2021/12/01 06:47:27;;;;;;;0.30;0.23;;;17.10;58.40;;;;;;10452208;28;20216;-64
2021/12/01 06:52:49;;;;;;;0.40;0.20;;;17.10;58.20;;;;;;10452038;28;20197;-64
2021/12/01 06:58:13;;;;;;;0.30;0.20;;;17.10;58.20;;;;;;10452232;28;20598;-65
2021/12/01 07:03:36;;;;;;;0.40;0.20;;;17.10;58.30;;;;;;10445882;28;20708;-62
2021/12/01 07:09:00;;;;;;;0.43;0.30;;;17.00;58.20;;;;;;10444993;28;20227;-64
2021/12/01 07:14:24;;;;;;;0.23;0.23;;;17.00;58.30;;;;;;10451437;28;20256;-64
2021/12/01 07:19:48;;;;;;;0.30;0.30;;;17.00;58.50;;;;;;10435683;28;20219;-63
2021/12/01 07:25:11;;;;;;;0.40;0.40;;;17.00;58.60;;;;;;10435899;28;20579;-63
2021/12/01 07:30:37;;;;;;;2.30;0.40;;;16.90;58.90;;;;;;10425530;28;20201;-63
2021/12/01 07:35:59;;;;;;;0.30;0.30;;;16.90;58.80;;;;;;10440402;28;20217;-63
2021/12/01 07:41:22;;;;;;;0.63;0.40;;;17.00;58.80;;;;;;10438776;28;20200;-63
2021/12/01 07:46:46;;;;;;;0.40;0.40;;;17.00;58.80;;;;;;10430232;28;20223;-63
2021/12/01 07:52:08;;;;;;;0.30;0.30;;;17.00;58.90;;;;;;10449155;28;20548;-63
2021/12/01 07:57:31;;;;;;;0.30;0.30;;;17.00;59.00;;;;;;10434573;28;20278;-63
2021/12/01 08:02:54;;;;;;;0.60;0.50;;;17.00;59.20;;;;;;10430529;28;20193;-64
2021/12/01 08:08:16;;;;;;;0.30;0.30;;;16.90;59.30;;;;;;10447000;28;20227;-63
2021/12/01 08:13:38;;;;;;;0.20;0.20;;;16.90;59.40;;;;;;10447237;28;20193;-63
2021/12/01 08:19:02;;;;;;;0.37;0.30;;;16.90;59.50;;;;;;10443275;28;20586;-63
2021/12/01 08:24:24;;;;;;;0.73;0.40;;;16.80;59.50;;;;;;10447614;28;20194;-63
2021/12/01 08:29:46;;;;;;;0.77;0.50;;;16.80;59.50;;;;;;10447468;28;20701;-63
2021/12/01 08:35:10;;;;;;;0.50;0.40;;;16.90;59.40;;;;;;10447119;28;20225;-63
2021/12/01 08:40:33;;;;;;;0.23;0.20;;;17.00;59.10;;;;;;10448076;28;20197;-63
2021/12/01 08:45:56;;;;;;;0.43;0.40;;;17.00;58.80;;;;;;10447425;28;20217;-63
2021/12/01 08:51:19;;;;;;;0.40;0.40;;;17.00;58.60;;;;;;10456870;28;20219;-64
2021/12/01 08:56:41;;;;;;;0.70;0.50;;;17.10;58.70;;;;;;10432050;28;20229;-63
2021/12/01 09:02:04;;;;;;;0.73;0.50;;;17.00;58.60;;;;;;10447700;28;20562;-63
2021/12/01 09:07:27;;;;;;;0.50;0.50;;;17.00;58.70;;;;;;10461838;28;20220;-64
2021/12/01 09:12:50;;;;;;;2.03;1.10;;;17.00;58.90;;;;;;10492247;28;20565;-64
2021/12/01 09:18:12;;;;;;;3.43;1.57;;;16.90;59.00;;;;;;10458395;28;20594;-64
2021/12/01 09:23:36;;;;;;;2.93;1.43;;;16.80;59.10;;;;;;10413849;28;20190;-64
2021/12/01 09:28:58;;;;;;;1.73;1.00;;;16.80;59.20;;;;;;10414054;28;20649;-64
2021/12/01 09:34:20;;;;;;;1.37;1.10;;;16.80;59.30;;;;;;10426825;28;20216;-64
2021/12/01 09:39:44;;;;;;;1.30;1.00;;;16.80;59.40;;;;;;10454494;28;20646;-64
2021/12/01 09:45:07;;;;;;;2.57;1.00;;;16.90;59.20;;;;;;10455163;28;20205;-64
2021/12/01 09:50:30;;;;;;;1.27;1.00;;;17.00;58.90;;;;;;10489423;28;20204;-64
2021/12/01 09:55:53;;;;;;;1.33;1.00;;;17.10;58.50;;;;;;10491301;28;20220;-63
2021/12/01 10:01:18;;;;;;;1.20;0.90;;;17.20;58.40;;;;;;10452603;28;20621;-63
2021/12/01 10:06:40;;;;;;;0.80;0.73;;;17.10;58.40;;;;;;10453148;28;20682;-63
2021/12/01 10:12:08;;;;;;;2.57;0.90;;;17.10;58.40;;;;;;10454601;28;20211;-64
2021/12/01 10:17:34;;;;;;;0.83;0.70;;;17.10;58.50;;;;;;10439940;28;20595;-63
2021/12/01 10:23:07;;;;;;;1.00;0.80;;;17.00;58.60;;;;;;10444910;28;20674;-64
2021/12/01 10:28:35;;;;;;;1.33;0.90;;;16.90;58.70;;;;;;10452427;28;20228;-64
2021/12/01 10:34:14;;;;;;;0.97;0.60;;;16.90;59.00;;;;;;10451924;28;20197;-64
2021/12/01 10:39:36;;;;;;;1.87;0.80;;;16.90;59.20;;;;;;10449883;28;20193;-64
2021/12/01 10:45:01;;;;;;;1.63;0.60;;;16.90;59.20;;;;;;10451210;28;20590;-64
2021/12/01 10:50:26;;;;;;;1.77;0.70;;;16.90;59.20;;;;;;10451550;28;20196;-63
2021/12/01 10:55:52;;;;;;;1.27;0.70;;;16.90;59.10;;;;;;10452015;28;20224;-63
2021/12/01 11:01:22;;;;;;;0.57;0.50;;;17.00;59.00;;;;;;10451339;28;20204;-63
2021/12/01 11:06:45;;;;;;;0.80;0.60;;;17.10;58.70;;;;;;10450927;28;20208;-63
2021/12/01 11:12:07;;;;;;;1.00;0.57;;;17.20;58.40;;;;;;10450945;28;20204;-64
2021/12/01 11:17:44;;;;;;;0.70;0.50;;;17.10;58.30;;;;;;10450522;28;20220;-64
2021/12/01 11:23:13;;;;;;;2.90;0.50;;;17.10;58.20;;;;;;10451756;28;20204;-64
2021/12/01 11:28:37;;;;;;;1.23;0.30;;;17.10;58.30;;;;;;10451004;28;20209;-64
2021/12/01 11:34:03;;;;;;;0.30;0.30;;;17.10;58.40;;;;;;10449554;28;20208;-64
2021/12/01 11:39:30;;;;;;;0.40;0.23;;;17.00;58.40;;;;;;10450610;28;20558;-64
2021/12/01 11:44:55;;;;;;;0.90;0.47;;;17.00;58.50;;;;;;10447610;28;20213;-64
2021/12/01 11:50:27;;;;;;;0.50;0.30;;;17.00;58.70;;;;;;10449996;28;20197;-65
2021/12/01 11:55:52;;;;;;;1.43;0.30;;;16.90;58.80;;;;;;10447918;28;20221;-64
2021/12/01 12:01:54;;;;;;;0.50;0.30;;;17.00;58.90;;;;;;10449013;28;20200;-65
2021/12/01 12:07:21;;;;;;;0.57;0.30;;;17.10;58.50;;;;;;10449776;28;20217;-65
2021/12/01 12:12:55;;;;;;;0.30;0.20;;;17.10;58.40;;;;;;10449649;28;20710;-65
2021/12/01 12:18:49;;;;;;;0.37;0.30;;;17.10;58.40;;;;;;10486339;23;20228;-64
2021/12/01 12:24:16;;;;;;;0.30;0.30;;;17.10;58.50;;;;;;10466795;28;20197;-64
2021/12/01 12:29:45;;;;;;;0.20;0.20;;;17.10;58.70;;;;;;10452421;28;20209;-64
2021/12/01 12:35:12;;;;;;;0.40;0.40;;;17.00;58.70;;;;;;10477388;28;20208;-64
2021/12/01 12:40:35;;;;;;;1.00;0.30;;;17.00;58.80;;;;;;10493508;28;20219;-64
2021/12/01 12:46:04;;;;;;;0.43;0.37;;;17.00;59.50;;;;;;10494402;28;20197;-64
2021/12/01 12:51:31;;;;;;;0.20;0.20;;;17.00;59.00;;;;;;10499460;28;20208;-70
2021/12/01 12:56:55;;;;;;;0.87;0.40;;;17.10;58.70;;;;;;10494499;28;20216;-71
2021/12/01 13:02:32;;;;;;;1.03;0.73;;;17.10;58.50;;;;;;10498664;28;20189;-70
2021/12/01 13:07:56;;;;;;;1.53;0.73;;;17.20;58.40;;;;;;10481786;28;20212;-70
2021/12/01 13:13:28;;;;;;;1.80;0.90;;;17.10;58.30;;;;;;10499520;28;20205;-70
2021/12/01 13:18:51;;;;;;;2.27;0.63;;;17.00;58.20;;;;;;10498376;28;20220;-70
2021/12/01 13:24:14;;;;;;;1.10;0.70;;;16.90;58.20;;;;;;10460513;28;20189;-67
2021/12/01 13:29:37;;;;;;;1.23;0.70;;;16.90;58.60;;;;;;10493397;28;20642;-67
2021/12/01 13:34:59;;;;;;;1.23;0.67;;;16.90;59.30;;;;;;10500356;28;20204;-67
2021/12/01 13:40:27;;;;;;;0.93;0.60;;;16.90;58.40;;;;;;10500899;28;20216;-67
2021/12/01 13:46:03;;;;;;;1.13;0.80;;;16.90;58.10;;;;;;10491456;28;20583;-69
2021/12/01 13:51:25;;;;;;;1.93;0.97;;;16.90;57.90;;;;;;10488758;28;20196;-69
2021/12/01 13:56:57;;;;;;;1.37;0.80;;;17.00;57.40;;;;;;10497258;28;20614;-69
2021/12/01 14:02:26;;;;;;;1.87;0.80;;;17.10;56.80;;;;;;10497074;28;20192;-69
2021/12/01 14:07:48;;;;;;;1.30;0.57;;;17.20;56.70;;;;;;10497285;28;20200;-70
2021/12/01 14:13:10;;;;;;;0.57;0.40;;;17.10;56.70;;;;;;10496033;28;20203;-70
2021/12/01 14:18:34;;;;;;;0.87;0.50;;;17.10;56.90;;;;;;10495753;28;20731;-70
2021/12/01 14:23:58;;;;;;;1.53;0.60;;;17.10;56.80;;;;;;10494759;28;20196;-64
2021/12/01 14:29:22;;;;;;;1.90;0.50;;;17.00;56.80;;;;;;10496398;28;20216;-64
2021/12/01 14:34:46;;;;;;;1.13;0.33;;;17.00;57.30;;;;;;10495965;28;20552;-63
2021/12/01 14:40:11;;;;;;;0.83;0.40;;;17.00;57.40;;;;;;10494762;28;20552;-66
2021/12/01 14:45:33;;;;;;;1.43;0.53;;;17.00;57.50;;;;;;10494045;28;20196;-66
2021/12/01 14:50:57;;;;;;;2.00;0.70;;;16.90;57.40;;;;;;10493548;28;20220;-66
2021/12/01 14:56:19;;;;;;;1.23;0.70;;;16.90;57.50;;;;;;10495363;28;20211;-66
2021/12/01 15:01:42;;;;;;;2.33;0.67;;;17.00;57.50;;;;;;10494025;28;20318;-66
2021/12/01 15:07:13;;;;;;;1.95;1.08;;;17.10;57.20;;;;;;10490747;28;20430;-64
2021/12/01 15:12:35;;;;;;;3.60;1.10;;;17.90;54.60;;;;;;10492563;28;20282;-65
2021/12/01 15:18:00;;;;;;;2.43;0.70;;;17.50;55.50;;;;;;10491004;28;20227;-64
2021/12/01 15:23:25;;;;;;;2.17;0.77;;;17.40;56.00;;;;;;10463773;28;20192;-67
2021/12/01 15:28:49;;;;;;;2.60;1.10;;;17.30;56.30;;;;;;10489524;28;20447;-66
2021/12/01 15:34:11;;;;;;;2.60;1.10;;;17.70;55.40;;;;;;10456040;28;20587;-66
2021/12/01 15:39:36;;;;;;;1.63;0.73;;;17.30;56.70;;;;;;10486969;28;20246;-66
2021/12/01 15:44:58;;;;;;;1.83;0.93;;;17.10;57.50;;;;;;10473560;28;20893;-66
2021/12/01 15:50:25;;;;;;;1.97;0.63;;;17.00;57.70;;;;;;10487401;28;20220;-66
2021/12/01 15:55:49;;;;;;;1.80;0.93;;;16.90;57.80;;;;;;10487612;28;20222;-66
2021/12/01 16:01:11;;;;;;;3.60;1.50;;;16.90;57.90;;;;;;10485810;28;20224;-66
2021/12/01 16:06:33;;;;;;;3.40;1.93;;;16.90;57.90;;;;;;10486993;28;20188;-65
2021/12/01 16:11:56;;;;;;;4.67;2.13;;;16.90;57.60;;;;;;10486365;28;20192;-67
2021/12/01 16:17:18;;;;;;;3.97;2.00;;;17.10;57.00;;;;;;10485898;28;20223;-66
2021/12/01 16:22:43;;;;;;;3.10;1.43;;;17.10;56.40;;;;;;10489811;28;20199;-66
2021/12/01 16:28:07;;;;;;;2.30;0.97;;;17.00;56.00;;;;;;10496714;28;20290;-66
2021/12/01 16:33:29;;;;;;;2.37;1.20;;;16.90;55.60;;;;;;10496290;28;20567;-67
2021/12/01 16:38:52;;;;;;;2.13;1.03;;;16.90;55.80;;;;;;10496032;28;20203;-66
2021/12/01 16:44:16;;;;;;;2.30;1.10;;;16.80;55.80;;;;;;10496225;28;20204;-65
2021/12/01 16:49:38;;;;;;;3.33;1.00;;;16.80;55.80;;;;;;10457294;28;20692;-65
2021/12/01 16:55:00;;;;;;;3.13;1.30;;;16.70;55.70;;;;;;10474321;28;20192;-66
2021/12/01 17:00:28;;;;;;;3.67;1.10;;;16.80;55.40;;;;;;10499651;28;20711;-65
2021/12/01 17:05:54;;;;;;;1.20;0.70;;;16.90;54.90;;;;;;10497650;28;20192;-65
2021/12/01 17:11:17;;;;;;;2.30;1.20;;;16.90;54.30;;;;;;10499598;28;20253;-65
2021/12/01 17:16:40;;;;;;;4.07;1.00;;;16.90;54.10;;;;;;10484548;28;20377;-64
2021/12/01 17:22:03;;;;;;;2.37;0.90;;;16.80;54.20;;;;;;10498639;28;20223;-64
2021/12/01 17:27:27;;;;;;;1.57;0.90;;;16.80;54.60;;;;;;10498986;28;20208;-64
2021/12/01 17:32:51;;;;;;;2.93;1.10;;;16.80;54.80;;;;;;10499617;28;20570;-65
2021/12/01 17:38:13;;;;;;;3.37;1.03;;;16.70;54.90;;;;;;10456994;28;20742;-65
2021/12/01 17:43:35;;;;;;;2.43;0.90;;;16.70;54.80;;;;;;10489289;28;20571;-64
2021/12/01 17:48:59;;;;;;;2.70;1.20;;;16.80;54.70;;;;;;10497967;28;20212;-65
2021/12/01 17:54:22;;;;;;;3.13;0.80;;;16.80;54.40;;;;;;10488553;28;20200;-64
2021/12/01 17:59:44;;;;;;;3.53;1.33;;;16.80;53.80;;;;;;10456398;28;20296;-65
2021/12/01 18:05:09;;;;;;;3.47;1.20;;;16.90;53.20;;;;;;10492415;28;20553;-65
2021/12/01 18:10:31;;;;;;;3.20;1.23;;;17.00;52.50;;;;;;10488299;28;20695;-65
2021/12/01 18:15:54;;;;;;;3.53;1.23;;;16.90;52.00;;;;;;10495806;28;20197;-65
2021/12/01 18:21:17;;;;;;;3.27;1.30;;;16.80;52.30;;;;;;10493094;22;20221;-65
2021/12/01 18:26:40;;;;;;;2.33;0.93;;;16.80;52.50;;;;;;10423843;28;20688;-64
2021/12/01 18:32:04;;;;;;;4.53;1.30;;;16.80;52.90;;;;;;10441896;28;20217;-64
2021/12/01 18:37:27;;;;;;;3.90;1.50;;;16.80;53.00;;;;;;10448232;28;20228;-63
2021/12/01 18:42:50;;;;;;;4.27;1.17;;;16.80;53.10;;;;;;10448664;28;20696;-64
2021/12/01 18:48:12;;;;;;;5.07;1.47;;;16.90;52.90;;;;;;10481761;28;20188;-63
2021/12/01 18:53:37;;;;;;;2.87;1.10;;;16.90;52.50;;;;;;10494506;28;20699;-65
2021/12/01 18:59:01;;;;;;;3.33;1.10;;;16.90;52.30;;;;;;10494184;28;20283;-64
2021/12/01 19:04:23;;;;;;;3.27;1.43;;;16.80;52.20;;;;;;10454992;28;20221;-63
2021/12/01 19:09:46;;;;;;;3.00;0.83;;;16.80;52.30;;;;;;10453830;28;20201;-64
2021/12/01 19:15:10;;;;;;;3.17;1.03;;;16.90;52.30;;;;;;10452513;28;20595;-63
2021/12/01 19:20:33;;;;;;;2.43;1.00;;;16.90;52.10;;;;;;10454028;28;20221;-64
2021/12/01 19:25:56;;;;;;;3.70;1.27;;;16.90;52.10;;;;;;10452712;28;20205;-64
2021/12/01 19:31:19;;;;;;;3.67;1.23;;;16.90;52.50;;;;;;10451999;28;20714;-64
2021/12/01 19:36:41;;;;;;;4.13;1.27;;;16.80;52.60;;;;;;10451804;28;20213;-65
2021/12/01 19:42:05;;;;;;;4.43;1.20;;;16.80;52.60;;;;;;10446113;28;20220;-64
2021/12/01 19:47:29;;;;;;;4.07;1.23;;;16.80;52.60;;;;;;10469263;28;20280;-63
2021/12/01 19:52:52;;;;;;;5.57;1.40;;;16.80;52.20;;;;;;10452797;28;20591;-63
2021/12/01 19:58:16;;;;;;;3.43;1.47;;;16.80;52.40;;;;;;10455325;28;20703;-64
2021/12/01 20:03:38;;;;;;;4.80;1.63;;;16.90;52.50;;;;;;10451146;28;20742;-64
2021/12/01 20:09:04;;;;;;;2.90;1.00;;;16.90;52.60;;;;;;10451018;28;20282;-63
2021/12/01 20:14:28;;;;;;;4.13;1.87;;;16.90;52.40;;;;;;10451095;28;20235;-63
2021/12/01 20:19:50;;;;;;;2.40;1.30;;;16.80;52.10;;;;;;10452064;28;20619;-64
2021/12/01 20:25:14;;;;;;;2.30;1.10;;;16.80;52.00;;;;;;10450643;28;20200;-64
2021/12/01 20:30:37;;;;;;;2.83;1.40;;;16.80;51.50;;;;;;10451250;28;20217;-64
2021/12/01 20:36:01;;;;;;;2.90;1.20;;;16.80;51.00;;;;;;10449115;28;20224;-60
2021/12/01 20:41:27;;;;;;;3.37;1.10;;;16.90;51.00;;;;;;10441579;28;20577;-60
2021/12/01 20:58:14;;;;;;;3.23;1.07;;;16.90;51.10;;;;;;10436228;28;20222;-63
2021/12/01 21:03:38;;;;;;;4.90;1.27;;;16.80;50.90;;;;;;10431221;28;20228;-65
2021/12/01 21:09:12;;;;;;;2.20;1.00;;;16.80;50.70;;;;;;10456422;28;20617;-64
2021/12/01 21:14:35;;;;;;;3.17;1.00;;;16.80;50.70;;;;;;10430554;28;20198;-64
2021/12/01 21:19:59;;;;;;;3.10;1.10;;;16.80;50.20;;;;;;10433769;28;20224;-64
2021/12/01 21:25:24;;;;;;;3.67;1.00;;;16.90;49.60;;;;;;10429136;28;20664;-64
2021/12/01 21:30:50;;;;;;;3.50;1.10;;;17.00;49.20;;;;;;10436875;28;20217;-64
2021/12/01 21:36:15;;;;;;;3.83;0.90;;;17.00;49.30;;;;;;10437879;28;20584;-63
2021/12/01 21:41:38;;;;;;;1.73;0.60;;;17.00;49.50;;;;;;10430465;28;20209;-63
2021/12/01 21:47:00;;;;;;;3.13;1.30;;;17.00;50.10;;;;;;10434514;28;20193;-64
2021/12/01 21:52:24;;;;;;;2.53;0.93;;;16.90;50.40;;;;;;10441476;28;20224;-61
2021/12/01 21:57:49;;;;;;;3.13;1.10;;;16.90;50.70;;;;;;10457002;28;20228;-63
2021/12/01 22:03:11;;;;;;;2.20;0.83;;;16.80;50.70;;;;;;10456010;28;20825;-63
2021/12/01 22:08:36;;;;;;;2.83;1.07;;;16.70;50.80;;;;;;10454844;28;20197;-63
2021/12/01 22:13:58;;;;;;;2.83;0.80;;;16.70;51.10;;;;;;10455508;28;20213;-64
2021/12/01 22:19:21;;;;;;;2.47;0.83;;;16.70;51.30;;;;;;10454477;28;20216;-64
2021/12/01 22:24:50;;;;;;;2.23;0.77;;;16.60;51.00;;;;;;10455816;28;20215;-64
2021/12/01 22:30:20;;;;;;;2.13;0.80;;;16.70;50.70;;;;;;10455071;28;20696;-63
2021/12/01 22:35:43;;;;;;;1.67;0.60;;;16.80;50.50;;;;;;10454978;28;20193;-63
2021/12/01 22:41:08;;;;;;;2.20;0.97;;;16.80;50.30;;;;;;10468117;28;20224;-62
2021/12/01 22:46:33;;;;;;;1.47;0.57;;;16.80;50.50;;;;;;10480804;28;20201;-64
2021/12/01 22:51:55;;;;;;;2.03;0.77;;;16.80;50.70;;;;;;10455620;28;20224;-63
2021/12/01 22:57:21;;;;;;;1.43;0.67;;;16.80;50.90;;;;;;10417423;28;20216;-63
2021/12/01 23:02:51;;;;;;;1.83;0.73;;;16.80;51.00;;;;;;10455656;28;20236;-63
2021/12/01 23:08:16;;;;;;;2.60;0.80;;;16.70;51.00;;;;;;10449144;28;20776;-64
2021/12/01 23:13:39;;;;;;;1.27;0.47;;;16.60;51.10;;;;;;10436767;28;20304;-64
2021/12/01 23:19:04;;;;;;;1.17;0.60;;;16.60;51.20;;;;;;10430637;28;20213;-63
2021/12/01 23:30:10;;;;;;;2.20;0.60;;;16.60;51.30;;;;;;10411790;28;20596;-64
2021/12/01 23:35:32;;;;;;;1.40;0.60;;;16.60;51.30;;;;;;10451375;28;20203;-63
2021/12/01 23:40:54;;;;;;;1.80;0.60;;;16.60;51.20;;;;;;10472200;28;20234;-63
2021/12/01 23:46:33;;;;;;;2.30;0.60;;;16.70;50.90;;;;;;10439349;28;20201;-64
2021/12/01 23:51:58;;;;;;;0.97;0.50;;;16.70;50.90;;;;;;10411636;28;20217;-64
2021/12/01 23:57:21;;;;;;;2.00;0.70;;;16.70;50.90;;;;;;10411309;28;20268;-63
